Time,TemperatureF,DewpointF,PressureIn,WindDirection,WindDirectionDegrees,WindSpeedMPH,WindSpeedGustMPH,Humidity,HourlyPrecipIn,Conditions,Clouds,dailyrainin,SoftwareType,DateUTC
2013-03-11 00:13:00,37.0,34.0,30.30,SSE,166,2.0,7.0,88,0.00,,,0.00,weatherlink.com 1.10,2013-03-11 04:13:00,
2013-03-11 00:28:00,36.9,34.0,30.29,ESE,107,2.0,4.0,88,0.00,,,0.00,weatherlink.com 1.10,2013-03-11 04:28:00,
2013-03-11 00:43:00,37.2,34.0,30.29,SSE,155,0.0,6.0,89,0.00,,,0.00,weatherlink.com 1.10,2013-03-11 04:43:00,
2013-03-11 00:58:00,37.5,35.0,30.29,SSE,164,2.0,7.0,89,0.00,,,0.00,weatherlink.com 1.10,2013-03-11 04:58:00,
2013-03-11 01:13:00,37.6,34.0,30.29,South,190,2.0,4.0,88,0.00,,,0.00,weatherlink.com 1.10,2013-03-11 05:13:00,
2013-03-11 01:28:00,37.6,34.0,30.28,SW,214,0.0,6.0,88,0.00,,,0.00,weatherlink.com 1.10,2013-03-11 05:28:00,
2013-03-11 01:43:00,37.6,34.0,30.28,SSE,165,4.0,7.0,88,0.00,,,0.00,weatherlink.com 1.10,2013-03-11 05:43:00,
2013-03-11 01:58:00,37.6,35.0,30.28,SSE,160,1.0,4.0,89,0.00,,,0.00,weatherlink.com 1.10,2013-03-11 05:58:00,
2013-03-11 02:13:00,37.6,35.0,30.29,NW,309,1.0,4.0,89,0.00,,,0.00,weatherlink.com 1.10,2013-03-11 06:13:00,
2013-03-11 02:28:00,37.7,35.0,30.28,SSW,205,0.0,7.0,89,0.00,,,0.00,weatherlink.com 1.10,2013-03-11 06:28:00,
2013-03-11 02:43:00,37.8,35.0,30.28,SW,219,0.0,6.0,88,0.00,,,0.00,weatherlink.com 1.10,2013-03-11 06:43:00,
2013-03-11 02:58:00,37.9,35.0,30.29,SW,226,1.0,5.0,88,0.00,,,0.00,weatherlink.com 1.10,2013-03-11 06:58:00,
2013-03-11 03:13:00,37.9,35.0,30.30,WNW,286,0.0,3.0,89,0.00,,,0.00,weatherlink.com 1.10,2013-03-11 07:13:00,
2013-03-11 03:28:00,38.0,35.0,30.28,SSW,194,0.0,5.0,89,0.00,,,0.00,weatherlink.com 1.10,2013-03-11 07:28:00,
2013-03-11 03:43:00,38.1,35.0,30.28,SW,225,0.0,4.0,89,0.00,,,0.00,weatherlink.com 1.10,2013-03-11 07:43:00,
2013-03-11 03:58:00,38.2,35.0,30.27,SSE,152,0.0,5.0,89,0.00,,,0.00,weatherlink.com 1.10,2013-03-11 07:58:00,
2013-03-11 04:13:00,38.1,35.0,30.26,West,264,1.0,5.0,89,0.00,,,0.00,weatherlink.com 1.10,2013-03-11 08:13:00,
2013-03-11 04:28:00,38.1,35.0,30.25,SW,219,0.0,3.0,89,0.00,,,0.00,weatherlink.com 1.10,2013-03-11 08:28:00,
2013-03-11 04:43:00,38.1,35.0,30.25,SSW,197,0.0,5.0,89,0.00,,,0.00,weatherlink.com 1.10,2013-03-11 08:43:00,
2013-03-11 04:58:00,38.1,35.0,30.25,SSW,204,0.0,6.0,89,0.00,,,0.00,weatherlink.com 1.10,2013-03-11 08:58:00,
2013-03-11 05:13:00,38.1,35.0,30.25,SSW,207,1.0,5.0,89,0.00,,,0.00,weatherlink.com 1.10,2013-03-11 09:13:00,
2013-03-11 05:28:00,38.1,35.0,30.25,SW,226,2.0,4.0,89,0.00,,,0.00,weatherlink.com 1.10,2013-03-11 09:28:00,
2013-03-11 05:43:00,38.1,35.0,30.26,SW,226,1.0,3.0,89,0.00,,,0.00,weatherlink.com 1.10,2013-03-11 09:43:00,
2013-03-11 05:58:00,38.0,35.0,30.26,WSW,250,1.0,2.0,89,0.00,,,0.00,weatherlink.com 1.10,2013-03-11 09:58:00,
2013-03-11 06:13:00,38.0,35.0,30.26,SSE,149,2.0,3.0,89,0.00,,,0.00,weatherlink.com 1.10,2013-03-11 10:13:00,
2013-03-11 06:28:00,37.7,35.0,30.26,SSW,209,2.0,2.0,89,0.00,,,0.00,weatherlink.com 1.10,2013-03-11 10:28:00,
2013-03-11 06:43:00,37.2,34.0,30.26,SW,218,1.0,2.0,89,0.00,,,0.00,weatherlink.com 1.10,2013-03-11 10:43:00,
2013-03-11 06:58:00,36.6,34.0,30.26,SW,233,0.0,2.0,90,0.00,,,0.00,weatherlink.com 1.10,2013-03-11 10:58:00,
2013-03-11 07:13:00,36.4,34.0,30.26,SSW,201,0.0,3.0,91,0.00,,,0.00,weatherlink.com 1.10,2013-03-11 11:13:00,
2013-03-11 07:28:00,36.4,34.0,30.27,WSW,247,0.0,1.0,91,0.00,,,0.00,weatherlink.com 1.10,2013-03-11 11:28:00,
2013-03-11 07:43:00,36.9,35.0,30.28,SSW,208,0.0,2.0,92,0.00,,,0.00,weatherlink.com 1.10,2013-03-11 11:43:00,
2013-03-11 07:58:00,38.1,36.0,30.27,SSW,198,1.0,2.0,91,0.00,,,0.00,weatherlink.com 1.10,2013-03-11 11:58:00,
2013-03-11 08:13:00,39.0,36.0,30.27,SSW,193,4.0,5.0,90,0.00,,,0.00,weatherlink.com 1.10,2013-03-11 12:13:00,
2013-03-11 08:28:00,39.5,36.0,30.26,SSE,147,1.0,8.0,88,0.00,,,0.00,weatherlink.com 1.10,2013-03-11 12:28:00,
2013-03-11 08:43:00,39.8,36.0,30.26,SSW,200,4.0,10.0,87,0.00,,,0.00,weatherlink.com 1.10,2013-03-11 12:43:00,
2013-03-11 08:58:00,40.0,37.0,30.26,SSW,205,3.0,7.0,88,0.00,,,0.00,weatherlink.com 1.10,2013-03-11 12:58:00,
2013-03-11 09:13:00,40.6,37.0,30.26,SSE,165,3.0,6.0,88,0.00,,,0.00,weatherlink.com 1.10,2013-03-11 13:13:00,
2013-03-11 09:28:00,40.9,37.0,30.25,SE,135,8.0,11.0,86,0.00,,,0.00,weatherlink.com 1.10,2013-03-11 13:28:00,
2013-03-11 09:43:00,40.7,37.0,30.25,SE,133,8.0,12.0,86,0.00,,,0.00,weatherlink.com 1.10,2013-03-11 13:43:00,
2013-03-11 09:58:00,40.5,37.0,30.25,South,172,6.0,13.0,87,0.00,,,0.00,weatherlink.com 1.10,2013-03-11 13:58:00,
2013-03-11 10:13:00,41.1,38.0,30.25,SSW,205,4.0,12.0,88,0.00,,,0.00,weatherlink.com 1.10,2013-03-11 14:13:00,
2013-03-11 10:29:00,41.7,38.0,30.25,SSE,167,7.0,13.0,88,0.00,,,0.00,weatherlink.com 1.10,2013-03-11 14:29:00,
2013-03-11 10:44:00,41.9,38.0,30.25,ESE,117,6.0,11.0,87,0.00,,,0.00,weatherlink.com 1.10,2013-03-11 14:44:00,
2013-03-11 10:59:00,42.1,39.0,30.26,South,179,5.0,11.0,88,0.00,,,0.00,weatherlink.com 1.10,2013-03-11 14:59:00,
2013-03-11 11:14:00,41.7,38.0,30.26,South,180,5.0,10.0,88,0.00,,,0.00,weatherlink.com 1.10,2013-03-11 15:14:00,
2013-03-11 11:29:00,43.1,40.0,30.26,SSW,194,4.0,10.0,87,0.00,,,0.00,weatherlink.com 1.10,2013-03-11 15:29:00,
2013-03-11 11:44:00,44.3,40.0,30.26,South,189,6.0,10.0,84,0.00,,,0.00,weatherlink.com 1.10,2013-03-11 15:44:00,
2013-03-11 11:59:00,44.8,40.0,30.26,SE,139,7.0,11.0,83,0.00,,,0.00,weatherlink.com 1.10,2013-03-11 15:59:00,
2013-03-11 12:14:00,44.7,40.0,30.27,SE,141,6.0,12.0,83,0.00,,,0.00,weatherlink.com 1.10,2013-03-11 16:14:00,
2013-03-11 12:29:00,45.2,40.0,30.26,SSW,203,8.0,11.0,82,0.00,,,0.00,weatherlink.com 1.10,2013-03-11 16:29:00,
2013-03-11 12:44:00,45.3,40.0,30.25,SSE,162,4.0,13.0,82,0.00,,,0.00,weatherlink.com 1.10,2013-03-11 16:44:00,
2013-03-11 12:59:00,45.2,40.0,30.24,SW,221,7.0,11.0,83,0.00,,,0.00,weatherlink.com 1.10,2013-03-11 16:59:00,
2013-03-11 13:14:00,45.4,40.0,30.24,SSW,198,8.0,15.0,82,0.00,,,0.00,weatherlink.com 1.10,2013-03-11 17:14:00,
2013-03-11 13:29:00,45.2,40.0,30.25,South,188,5.0,13.0,83,0.00,,,0.00,weatherlink.com 1.10,2013-03-11 17:29:00,
2013-03-11 13:44:00,46.1,41.0,30.25,SSE,160,9.0,13.0,83,0.00,,,0.00,weatherlink.com 1.10,2013-03-11 17:44:00,
2013-03-11 14:14:00,46.3,41.0,30.23,South,190,6.0,11.0,83,0.00,,,0.00,weatherlink.com 1.10,2013-03-11 18:14:00,
2013-03-11 14:29:00,45.1,41.0,30.21,SSE,150,6.0,15.0,84,0.00,,,0.00,weatherlink.com 1.10,2013-03-11 18:29:00,
2013-03-11 14:44:00,44.2,41.0,30.21,South,172,11.0,13.0,87,0.00,,,0.00,weatherlink.com 1.10,2013-03-11 18:44:00,
2013-03-11 14:59:00,44.3,41.0,30.21,South,177,9.0,14.0,87,0.00,,,0.00,weatherlink.com 1.10,2013-03-11 18:59:00,
2013-03-11 15:14:00,44.6,41.0,30.21,South,169,9.0,14.0,87,0.00,,,0.00,weatherlink.com 1.10,2013-03-11 19:14:00,
2013-03-11 15:29:00,44.9,41.0,30.21,SE,143,5.0,11.0,87,0.00,,,0.00,weatherlink.com 1.10,2013-03-11 19:29:00,
2013-03-11 15:44:00,44.8,41.0,30.21,SSE,153,5.0,11.0,86,0.00,,,0.00,weatherlink.com 1.10,2013-03-11 19:44:00,
2013-03-11 15:59:00,44.5,41.0,30.21,SSE,147,8.0,12.0,87,0.00,,,0.00,weatherlink.com 1.10,2013-03-11 19:59:00,
2013-03-11 16:14:00,44.5,41.0,30.21,SSW,207,5.0,10.0,87,0.00,,,0.00,weatherlink.com 1.10,2013-03-11 20:14:00,
2013-03-11 16:29:00,43.8,41.0,30.20,SSE,154,6.0,12.0,88,0.00,,,0.00,weatherlink.com 1.10,2013-03-11 20:29:00,
2013-03-11 16:44:00,43.2,40.0,30.20,SE,144,3.0,10.0,89,0.00,,,0.00,weatherlink.com 1.10,2013-03-11 20:44:00,
2013-03-11 16:59:00,43.2,41.0,30.20,South,186,5.0,10.0,90,0.00,,,0.00,weatherlink.com 1.10,2013-03-11 20:59:00,
2013-03-11 17:14:00,42.9,40.0,30.20,SSW,200,4.0,12.0,90,0.00,,,0.00,weatherlink.com 1.10,2013-03-11 21:14:00,
2013-03-11 17:29:00,42.8,40.0,30.20,SE,141,4.0,9.0,91,0.00,,,0.00,weatherlink.com 1.10,2013-03-11 21:29:00,
2013-03-11 17:44:00,42.7,40.0,30.20,South,187,4.0,11.0,91,0.00,,,0.00,weatherlink.com 1.10,2013-03-11 21:44:00,
2013-03-11 17:59:00,42.5,40.0,30.20,SSE,153,6.0,9.0,92,0.00,,,0.00,weatherlink.com 1.10,2013-03-11 21:59:00,
2013-03-11 18:14:00,42.1,40.0,30.19,SSE,153,4.0,9.0,92,0.00,,,0.00,weatherlink.com 1.10,2013-03-11 22:14:00,
2013-03-11 18:29:00,42.0,40.0,30.19,SSE,149,5.0,11.0,93,0.00,,,0.00,weatherlink.com 1.10,2013-03-11 22:29:00,
2013-03-11 18:44:00,41.9,40.0,30.19,SE,138,3.0,9.0,93,0.00,,,0.00,weatherlink.com 1.10,2013-03-11 22:44:00,
2013-03-11 18:59:00,41.9,40.0,30.18,South,170,5.0,11.0,93,0.00,,,0.00,weatherlink.com 1.10,2013-03-11 22:59:00,
2013-03-11 19:14:00,41.8,40.0,30.18,SSE,163,4.0,9.0,94,0.00,,,0.00,weatherlink.com 1.10,2013-03-11 23:14:00,
2013-03-11 19:29:00,41.9,40.0,30.18,SSE,152,4.0,11.0,94,0.00,,,0.00,weatherlink.com 1.10,2013-03-11 23:29:00,
2013-03-11 19:44:00,42.0,40.0,30.18,SSW,210,5.0,10.0,94,0.00,,,0.00,weatherlink.com 1.10,2013-03-11 23:44:00,
2013-03-11 19:59:00,42.0,40.0,30.18,SSE,165,5.0,9.0,94,0.00,,,0.00,weatherlink.com 1.10,2013-03-11 23:59:00,
2013-03-11 20:14:00,42.2,41.0,30.18,SSE,152,4.0,9.0,94,0.00,,,0.00,weatherlink.com 1.10,2013-03-12 00:14:00,
2013-03-11 20:29:00,42.1,41.0,30.18,SSE,165,5.0,7.0,94,0.00,,,0.00,weatherlink.com 1.10,2013-03-12 00:29:00,
2013-03-11 20:44:00,42.1,41.0,30.18,SSE,149,3.0,7.0,94,0.00,,,0.00,weatherlink.com 1.10,2013-03-12 00:44:00,
2013-03-11 20:59:00,42.3,41.0,30.17,SSW,197,6.0,9.0,94,0.00,,,0.00,weatherlink.com 1.10,2013-03-12 00:59:00,
2013-03-11 21:15:00,42.3,41.0,30.17,South,176,5.0,11.0,94,0.00,,,0.00,weatherlink.com 1.10,2013-03-12 01:15:00,
2013-03-11 21:30:00,42.3,41.0,30.17,South,181,5.0,10.0,94,0.00,,,0.00,weatherlink.com 1.10,2013-03-12 01:30:00,
2013-03-11 21:45:00,42.3,41.0,30.17,SSW,194,5.0,10.0,94,0.00,,,0.00,weatherlink.com 1.10,2013-03-12 01:45:00,
2013-03-11 22:00:00,42.3,41.0,30.17,SSE,155,4.0,10.0,95,0.00,,,0.00,weatherlink.com 1.10,2013-03-12 02:00:00,
2013-03-11 22:15:00,42.3,41.0,30.16,SSE,159,7.0,9.0,95,0.00,,,0.00,weatherlink.com 1.10,2013-03-12 02:15:00,
2013-03-11 22:30:00,42.5,41.0,30.16,SSE,160,3.0,9.0,95,0.00,,,0.00,weatherlink.com 1.10,2013-03-12 02:30:00,
2013-03-11 22:45:00,42.4,41.0,30.16,SSE,160,4.0,11.0,95,0.00,,,0.00,weatherlink.com 1.10,2013-03-12 02:45:00,
2013-03-11 23:00:00,42.4,41.0,30.15,SSE,164,7.0,9.0,95,0.00,,,0.00,weatherlink.com 1.10,2013-03-12 03:00:00,
2013-03-11 23:15:00,42.5,41.0,30.15,South,170,6.0,10.0,95,0.00,,,0.00,weatherlink.com 1.10,2013-03-12 03:15:00,
2013-03-11 23:30:00,42.4,41.0,30.14,South,186,5.0,10.0,95,0.00,,,0.00,weatherlink.com 1.10,2013-03-12 03:30:00,
2013-03-11 23:45:00,42.3,41.0,30.16,SSW,200,5.0,10.0,95,0.00,,,0.00,weatherlink.com 1.10,2013-03-12 03:45:00,